ロンドン/ヒースロー の空港の天気 - METARとTAF

ロンドン・ヒースロー空港 ( EGLL / LHR ) - イギリス ロンドン
飛行場実況気象(Metar)
観測時間10/26 08:20 BST (10/26 07:20 UTC)
風向・風速南南西 3m/s
視程10km以上
天気現象
全天の4割程度の雲 雲底高度 150m
気温10℃
湿度94%
気圧1018hPa
METAREGLL 260720Z AUTO 21005KT 180V240 9999 SCT005 10/09 Q1018
過去の天気等 Google飛行場航空写真 Wunderground天気予報

過去48時間のMETAR

飛行場予報(TAF)
発表時間: 10/26 06:34 BST (10/26 05:34 UTC)
予報対象時間: 26日7時 BST ~ 27日13時 BST
風向・風速南西 3m/s
視程10km以上
全天の4割程度の雲 雲底高度 910m
26日7時 BST ~ 26日8時 BST に 確率 30% で一時的に
視程800m
天気現象
全天の8割程度の雲 雲底高度 30m
26日11時 BST ~ 26日15時 BST に一時的に
視程7000m
天気現象弱い雨霧雨
全天の8割程度の雲 雲底高度 240m
26日20時 BST ~ 27日7時 BST に 確率 40% で一時的に
全天の8割程度の雲 雲底高度 300m
27日10時 BST ~ 27日13時 BST に 確率 40% で一時的に
風向・風速南西 8m/s 瞬間風速 13m/s
TAF AMD EGLL 260534Z 2606/2712 22006KT 9999 SCT030
PROB30 TEMPO 2606/2607 0800 FG BKN001
TEMPO 2610/2614 7000 -RADZ BKN008
PROB40 TEMPO 2619/2706 BKN010
PROB40 TEMPO 2709/2712 22015G25KT